OIBL  Bandar Lengeh  Airport

Bandar Lengeh, Iran

Add Bookmark
ICAO OIBL
IATA BDH
Type Airport
Status Operational
Latitude
26° 31' 55" N
26.532000
Longitude
54° 49' 29" E
54.824799
Local (GMT +4.5 ) UTC
Apr 29, 2016 04:12 am Apr 28, 2016 23:42
Sunrise-Sunset Local UTC
Begin Civil Twilight 05:48 am 01:18
Sunrise 06:12 am 01:42
Sunset 07:23 pm 14:53
End Civil Twilight 07:47 pm 15:17
VFR
VFR
MVFR
MVFR
IFR
IFR
LIFR
LIFR
Unknown
Unavailable

Current Weather

METAR Observed VFR
OIBL 282100Z 27010KT CAVOK 27/21 Q1008 Thu, Apr 28, 2016 @ 21:00 UTC
(2 Hours, 42 Minutes ago)
Visual Flight Rules
Wind Visibility Conditions
270° at 10 knots (19 kph) 10 km or more
  • No significant weather
Temperatures Readings Precipitation
Current Temp
27°C
81°F
Dewpoint
21°C
70°F
Heat Index
29°C
85°
Humidity 70%
Altimeter 29.76" Hg
Sea Level Pressure 1,008 mb
Field Elevation
14 m
46 ft
None Recorded

Additional weather within a 92.6km radius of OIBL

Map ICAO Location
OIBS 74.8km S/SW (202°)
OIBA 75.9km S/SE (164°)
VFR
VFR
MVFR
MVFR
IFR
IFR
LIFR
LIFR
Unknown
Unavailable
-
-

CheckWX.com is intended as a tool to help pilots better visualize weather data. It is not intended as a substitute for an official weather briefing obtained from a Flight Service Station. CheckWX.com does not meet the FAA requirements for an official pre-flight weather briefing. Therefore, it's important that pilots still call and obtain an official FSS pre-flight weather briefing.

© 2007-2016 CheckWX.com
23:42:04 UTC